sensor_id;sensor_type;location;lat;lon;timestamp;pressure;altitude;pressure_sealevel;temperature;humidity
6567;BME280;3317;43.994;22.878;2022-10-17T00:02:18;102512.84;;;12.93;52.63
6567;BME280;3317;43.994;22.878;2022-10-17T00:04:45;102518.53;;;12.90;53.74
6567;BME280;3317;43.994;22.878;2022-10-17T00:07:12;102517.81;;;12.88;53.00
6567;BME280;3317;43.994;22.878;2022-10-17T00:09:41;102521.63;;;12.85;52.42
6567;BME280;3317;43.994;22.878;2022-10-17T00:12:09;102518.28;;;12.81;51.97
6567;BME280;3317;43.994;22.878;2022-10-17T00:14:37;102509.03;;;12.73;52.20
6567;BME280;3317;43.994;22.878;2022-10-17T00:17:04;102523.00;;;12.79;52.86
6567;BME280;3317;43.994;22.878;2022-10-17T00:19:31;102525.88;;;12.78;53.81
6567;BME280;3317;43.994;22.878;2022-10-17T00:21:58;102524.88;;;12.67;54.29
6567;BME280;3317;43.994;22.878;2022-10-17T00:24:25;102526.22;;;12.62;54.51
6567;BME280;3317;43.994;22.878;2022-10-17T00:26:52;102527.69;;;12.54;54.94
6567;BME280;3317;43.994;22.878;2022-10-17T00:29:20;102527.22;;;12.49;54.83
6567;BME280;3317;43.994;22.878;2022-10-17T00:31:47;102527.72;;;12.43;54.74
6567;BME280;3317;43.994;22.878;2022-10-17T00:34:14;102528.69;;;12.42;54.73
6567;BME280;3317;43.994;22.878;2022-10-17T00:36:41;102534.38;;;12.39;54.08
6567;BME280;3317;43.994;22.878;2022-10-17T00:39:08;102534.38;;;12.39;53.36
6567;BME280;3317;43.994;22.878;2022-10-17T00:41:35;102531.03;;;12.35;52.85
6567;BME280;3317;43.994;22.878;2022-10-17T00:44:04;102542.03;;;12.34;52.45
6567;BME280;3317;43.994;22.878;2022-10-17T00:46:34;102530.63;;;12.29;52.57
6567;BME280;3317;43.994;22.878;2022-10-17T00:49:03;102537.81;;;12.30;53.54
6567;BME280;3317;43.994;22.878;2022-10-17T00:51:34;102538.81;;;12.29;54.08
6567;BME280;3317;43.994;22.878;2022-10-17T00:54:03;102537.31;;;12.24;54.08
6567;BME280;3317;43.994;22.878;2022-10-17T00:56:31;102540.16;;;12.23;54.23
6567;BME280;3317;43.994;22.878;2022-10-17T00:58:58;102544.84;;;12.21;53.53
6567;BME280;3317;43.994;22.878;2022-10-17T01:01:25;102541.38;;;12.19;53.28
6567;BME280;3317;43.994;22.878;2022-10-17T01:03:54;102538.81;;;12.17;53.67
6567;BME280;3317;43.994;22.878;2022-10-17T01:06:21;102549.03;;;12.14;53.44
6567;BME280;3317;43.994;22.878;2022-10-17T01:08:48;102546.44;;;12.12;54.55
6567;BME280;3317;43.994;22.878;2022-10-17T01:11:23;102531.47;;;12.06;54.74
6567;BME280;3317;43.994;22.878;2022-10-17T01:14:01;102542.34;;;12.06;53.86
6567;BME280;3317;43.994;22.878;2022-10-17T01:16:38;102540.50;;;12.07;53.80
6567;BME280;3317;43.994;22.878;2022-10-17T01:19:40;102477.13;;;11.71;53.83
6567;BME280;3317;43.994;22.878;2022-10-17T01:22:19;102550.63;;;12.05;53.05
6567;BME280;3317;43.994;22.878;2022-10-17T01:25:01;102551.47;;;12.05;54.00
6567;BME280;3317;43.994;22.878;2022-10-17T01:27:59;102541.91;;;12.00;53.52
6567;BME280;3317;43.994;22.878;2022-10-17T01:30:55;102544.00;;;11.96;52.35
6567;BME280;3317;43.994;22.878;2022-10-17T01:33:31;102543.91;;;11.97;52.53
6567;BME280;3317;43.994;22.878;2022-10-17T01:36:08;102545.13;;;11.93;53.08
6567;BME280;3317;43.994;22.878;2022-10-17T01:38:43;102548.81;;;11.92;53.37
6567;BME280;3317;43.994;22.878;2022-10-17T01:41:15;102555.47;;;11.88;53.88
6567;BME280;3317;43.994;22.878;2022-10-17T01:43:50;102545.81;;;11.84;54.20
6567;BME280;3317;43.994;22.878;2022-10-17T01:46:24;102553.34;;;11.80;54.01
6567;BME280;3317;43.994;22.878;2022-10-17T01:48:55;102556.94;;;11.81;54.18
6567;BME280;3317;43.994;22.878;2022-10-17T01:51:27;102559.00;;;11.77;54.20
6567;BME280;3317;43.994;22.878;2022-10-17T01:54:00;102560.09;;;11.75;55.02
6567;BME280;3317;43.994;22.878;2022-10-17T01:56:30;102564.03;;;11.71;53.80
6567;BME280;3317;43.994;22.878;2022-10-17T01:59:01;102552.03;;;11.62;54.18
6567;BME280;3317;43.994;22.878;2022-10-17T02:01:32;102572.53;;;11.66;53.21
6567;BME280;3317;43.994;22.878;2022-10-17T02:04:00;102567.22;;;11.64;52.59
6567;BME280;3317;43.994;22.878;2022-10-17T02:06:28;102499.88;;;11.21;53.07
6567;BME280;3317;43.994;22.878;2022-10-17T02:08:59;102582.75;;;11.62;53.02
6567;BME280;3317;43.994;22.878;2022-10-17T02:11:27;102577.56;;;11.59;53.31
6567;BME280;3317;43.994;22.878;2022-10-17T02:14:11;102583.88;;;11.60;53.30
6567;BME280;3317;43.994;22.878;2022-10-17T02:16:47;102586.94;;;11.55;52.40
6567;BME280;3317;43.994;22.878;2022-10-17T02:19:33;102587.91;;;11.54;52.77
6567;BME280;3317;43.994;22.878;2022-10-17T02:22:11;102586.28;;;11.51;52.47
6567;BME280;3317;43.994;22.878;2022-10-17T02:24:45;102581.19;;;11.47;52.72
6567;BME280;3317;43.994;22.878;2022-10-17T02:27:16;102593.69;;;11.49;52.41
6567;BME280;3317;43.994;22.878;2022-10-17T02:29:52;102595.75;;;11.46;52.34
6567;BME280;3317;43.994;22.878;2022-10-17T02:32:27;102594.13;;;11.43;52.37
6567;BME280;3317;43.994;22.878;2022-10-17T02:34:59;102588.19;;;11.38;52.39
6567;BME280;3317;43.994;22.878;2022-10-17T02:37:28;102599.78;;;11.40;52.40
6567;BME280;3317;43.994;22.878;2022-10-17T02:39:58;102608.03;;;11.38;52.28
6567;BME280;3317;43.994;22.878;2022-10-17T02:42:26;102611.75;;;11.37;52.51
6567;BME280;3317;43.994;22.878;2022-10-17T02:44:58;102616.41;;;11.35;53.37
6567;BME280;3317;43.994;22.878;2022-10-17T02:47:31;102615.66;;;11.33;53.90
6567;BME280;3317;43.994;22.878;2022-10-17T02:50:00;102564.75;;;10.99;53.80
6567;BME280;3317;43.994;22.878;2022-10-17T02:52:33;102622.31;;;11.29;53.41
6567;BME280;3317;43.994;22.878;2022-10-17T02:55:05;102618.06;;;11.25;52.81
6567;BME280;3317;43.994;22.878;2022-10-17T02:57:37;102628.06;;;11.24;53.04
6567;BME280;3317;43.994;22.878;2022-10-17T03:00:07;102623.84;;;11.20;53.26
6567;BME280;3317;43.994;22.878;2022-10-17T03:02:41;102633.09;;;11.18;52.85
6567;BME280;3317;43.994;22.878;2022-10-17T03:05:10;102641.31;;;11.16;52.71
6567;BME280;3317;43.994;22.878;2022-10-17T03:07:38;102635.25;;;11.12;53.92
6567;BME280;3317;43.994;22.878;2022-10-17T03:10:05;102632.66;;;11.11;53.50
6567;BME280;3317;43.994;22.878;2022-10-17T03:12:32;102634.63;;;11.09;53.04
6567;BME280;3317;43.994;22.878;2022-10-17T03:14:59;102627.47;;;11.08;53.85
6567;BME280;3317;43.994;22.878;2022-10-17T03:17:26;102631.25;;;11.05;53.57
6567;BME280;3317;43.994;22.878;2022-10-17T03:19:55;102638.84;;;11.00;53.01
6567;BME280;3317;43.994;22.878;2022-10-17T03:22:22;102628.97;;;10.99;52.69
6567;BME280;3317;43.994;22.878;2022-10-17T03:24:49;102626.38;;;10.97;51.90
6567;BME280;3317;43.994;22.878;2022-10-17T03:27:16;102627.56;;;10.93;53.24
6567;BME280;3317;43.994;22.878;2022-10-17T03:29:43;102615.84;;;10.80;54.10
6567;BME280;3317;43.994;22.878;2022-10-17T03:32:10;102626.06;;;10.89;54.54
6567;BME280;3317;43.994;22.878;2022-10-17T03:34:37;102631.81;;;10.84;54.45
6567;BME280;3317;43.994;22.878;2022-10-17T03:37:05;102634.50;;;10.84;55.98
6567;BME280;3317;43.994;22.878;2022-10-17T03:39:32;102632.91;;;10.82;56.26
6567;BME280;3317;43.994;22.878;2022-10-17T03:41:59;102642.13;;;10.79;56.20
6567;BME280;3317;43.994;22.878;2022-10-17T03:44:26;102640.47;;;10.77;55.69
6567;BME280;3317;43.994;22.878;2022-10-17T03:46:53;102645.25;;;10.73;55.89
6567;BME280;3317;43.994;22.878;2022-10-17T03:49:20;102650.69;;;10.73;55.06
6567;BME280;3317;43.994;22.878;2022-10-17T03:51:47;102652.75;;;10.69;56.30
6567;BME280;3317;43.994;22.878;2022-10-17T03:54:15;102656.53;;;10.67;55.55
6567;BME280;3317;43.994;22.878;2022-10-17T03:56:42;102653.94;;;10.65;56.17
6567;BME280;3317;43.994;22.878;2022-10-17T03:59:12;102653.16;;;10.63;56.44
6567;BME280;3317;43.994;22.878;2022-10-17T04:01:39;102659.66;;;10.61;55.50
6567;BME280;3317;43.994;22.878;2022-10-17T04:04:07;102665.22;;;10.59;55.13
6567;BME280;3317;43.994;22.878;2022-10-17T04:06:34;102650.34;;;10.52;56.42
6567;BME280;3317;43.994;22.878;2022-10-17T04:09:02;102660.97;;;10.55;56.67
6567;BME280;3317;43.994;22.878;2022-10-17T04:11:30;102655.09;;;10.48;55.83
6567;BME280;3317;43.994;22.878;2022-10-17T04:13:58;102663.22;;;10.48;56.25
6567;BME280;3317;43.994;22.878;2022-10-17T04:16:25;102661.72;;;10.44;56.74
6567;BME280;3317;43.994;22.878;2022-10-17T04:18:54;102670.91;;;10.41;57.58
6567;BME280;3317;43.994;22.878;2022-10-17T04:21:21;102674.69;;;10.39;57.54
6567;BME280;3317;43.994;22.878;2022-10-17T04:23:52;102656.44;;;10.28;57.02
6567;BME280;3317;43.994;22.878;2022-10-17T04:26:19;102664.69;;;10.26;57.07
6567;BME280;3317;43.994;22.878;2022-10-17T04:28:47;102674.34;;;10.31;56.79
6567;BME280;3317;43.994;22.878;2022-10-17T04:31:15;102684.22;;;10.32;56.25
6567;BME280;3317;43.994;22.878;2022-10-17T04:33:45;102672.69;;;10.28;55.71
6567;BME280;3317;43.994;22.878;2022-10-17T04:36:13;102673.97;;;10.22;56.90
6567;BME280;3317;43.994;22.878;2022-10-17T04:38:41;102684.44;;;10.28;57.12
6567;BME280;3317;43.994;22.878;2022-10-17T04:41:11;102692.66;;;10.27;56.61
6567;BME280;3317;43.994;22.878;2022-10-17T04:43:38;102685.50;;;10.26;56.50
6567;BME280;3317;43.994;22.878;2022-10-17T04:46:08;102695.66;;;10.22;56.06
6567;BME280;3317;43.994;22.878;2022-10-17T04:48:37;102682.53;;;10.16;55.66
6567;BME280;3317;43.994;22.878;2022-10-17T04:51:06;102697.81;;;10.17;55.29
6567;BME280;3317;43.994;22.878;2022-10-17T04:53:34;102698.81;;;10.16;55.53
6567;BME280;3317;43.994;22.878;2022-10-17T04:56:07;102701.72;;;10.13;56.98
6567;BME280;3317;43.994;22.878;2022-10-17T04:58:34;102700.97;;;10.11;57.33
6567;BME280;3317;43.994;22.878;2022-10-17T05:01:04;102707.31;;;10.10;57.58
6567;BME280;3317;43.994;22.878;2022-10-17T05:03:32;102705.78;;;10.06;57.66
6567;BME280;3317;43.994;22.878;2022-10-17T05:06:03;102714.81;;;10.06;57.12
6567;BME280;3317;43.994;22.878;2022-10-17T05:08:30;102717.50;;;10.06;57.51
6567;BME280;3317;43.994;22.878;2022-10-17T05:10:57;102722.06;;;10.06;57.57
6567;BME280;3317;43.994;22.878;2022-10-17T05:13:24;102725.72;;;10.05;57.79
6567;BME280;3317;43.994;22.878;2022-10-17T05:15:51;102711.94;;;9.95;56.71
6567;BME280;3317;43.994;22.878;2022-10-17T05:18:18;102728.44;;;10.05;57.08
6567;BME280;3317;43.994;22.878;2022-10-17T05:20:47;102730.38;;;10.03;57.82
6567;BME280;3317;43.994;22.878;2022-10-17T05:23:14;102734.84;;;10.04;57.35
6567;BME280;3317;43.994;22.878;2022-10-17T05:25:41;102741.00;;;10.06;58.24
6567;BME280;3317;43.994;22.878;2022-10-17T05:28:08;102743.72;;;10.06;58.33
6567;BME280;3317;43.994;22.878;2022-10-17T05:30:35;102748.47;;;10.02;58.39
6567;BME280;3317;43.994;22.878;2022-10-17T05:33:02;102749.91;;;10.08;58.20
6567;BME280;3317;43.994;22.878;2022-10-17T05:35:29;102737.75;;;10.00;57.95
6567;BME280;3317;43.994;22.878;2022-10-17T05:37:58;102690.03;;;9.70;58.82
6567;BME280;3317;43.994;22.878;2022-10-17T05:40:26;102740.94;;;10.07;59.54
6567;BME280;3317;43.994;22.878;2022-10-17T05:42:53;102751.16;;;10.17;59.22
6567;BME280;3317;43.994;22.878;2022-10-17T05:45:20;102768.06;;;10.20;59.07
6567;BME280;3317;43.994;22.878;2022-10-17T05:47:47;102767.09;;;10.21;58.99
6567;BME280;3317;43.994;22.878;2022-10-17T05:50:14;102773.19;;;10.25;58.99
6567;BME280;3317;43.994;22.878;2022-10-17T05:52:41;102767.69;;;10.26;58.87
6567;BME280;3317;43.994;22.878;2022-10-17T05:55:09;102777.25;;;10.32;58.51
6567;BME280;3317;43.994;22.878;2022-10-17T05:57:36;102773.25;;;10.38;58.14
6567;BME280;3317;43.994;22.878;2022-10-17T06:00:04;102769.66;;;10.37;58.54
6567;BME280;3317;43.994;22.878;2022-10-17T06:02:32;102785.34;;;10.47;58.39
6567;BME280;3317;43.994;22.878;2022-10-17T06:04:59;102779.81;;;10.48;58.26
6567;BME280;3317;43.994;22.878;2022-10-17T06:07:26;102790.91;;;10.58;58.29
6567;BME280;3317;43.994;22.878;2022-10-17T06:09:53;102774.97;;;10.53;57.95
6567;BME280;3317;43.994;22.878;2022-10-17T06:12:22;102789.22;;;10.70;57.68
6567;BME280;3317;43.994;22.878;2022-10-17T06:14:49;102794.41;;;10.73;57.61
6567;BME280;3317;43.994;22.878;2022-10-17T06:17:16;102799.31;;;10.81;58.30
6567;BME280;3317;43.994;22.878;2022-10-17T06:19:43;102801.53;;;10.89;58.15
6567;BME280;3317;43.994;22.878;2022-10-17T06:22:10;102809.13;;;10.96;58.03
6567;BME280;3317;43.994;22.878;2022-10-17T06:24:37;102811.31;;;11.04;58.20
6567;BME280;3317;43.994;22.878;2022-10-17T06:27:04;102816.13;;;11.13;58.11
6567;BME280;3317;43.994;22.878;2022-10-17T06:29:32;102815.56;;;11.21;57.63
6567;BME280;3317;43.994;22.878;2022-10-17T06:31:59;102817.75;;;11.29;57.39
6567;BME280;3317;43.994;22.878;2022-10-17T06:34:26;102814.38;;;11.38;58.23
6567;BME280;3317;43.994;22.878;2022-10-17T06:36:53;102810.16;;;11.47;58.48
6567;BME280;3317;43.994;22.878;2022-10-17T06:39:20;102819.59;;;11.54;59.06
6567;BME280;3317;43.994;22.878;2022-10-17T06:41:47;102817.22;;;11.63;58.86
6567;BME280;3317;43.994;22.878;2022-10-17T06:44:14;102819.16;;;11.74;58.82
6567;BME280;3317;43.994;22.878;2022-10-17T06:46:43;102810.34;;;11.83;59.29
6567;BME280;3317;43.994;22.878;2022-10-17T06:49:10;102816.84;;;11.93;59.49
6567;BME280;3317;43.994;22.878;2022-10-17T06:51:37;102815.00;;;12.07;60.62
6567;BME280;3317;43.994;22.878;2022-10-17T06:54:04;102825.16;;;12.16;59.89
6567;BME280;3317;43.994;22.878;2022-10-17T06:56:31;102824.41;;;12.27;60.15
6567;BME280;3317;43.994;22.878;2022-10-17T06:58:58;102832.38;;;12.42;60.17
6567;BME280;3317;43.994;22.878;2022-10-17T07:01:25;102821.56;;;12.53;60.26
6567;BME280;3317;43.994;22.878;2022-10-17T07:03:54;102833.84;;;12.59;60.03
6567;BME280;3317;43.994;22.878;2022-10-17T07:06:21;102795.81;;;12.46;59.73
6567;BME280;3317;43.994;22.878;2022-10-17T07:08:49;102824.84;;;12.70;59.40
6567;BME280;3317;43.994;22.878;2022-10-17T07:11:18;102832.91;;;12.71;59.68
6567;BME280;3317;43.994;22.878;2022-10-17T07:13:46;102832.72;;;12.86;59.55
6567;BME280;3317;43.994;22.878;2022-10-17T07:16:14;102833.63;;;12.98;58.84
6567;BME280;3317;43.994;22.878;2022-10-17T07:18:41;102836.09;;;13.01;59.10
6567;BME280;3317;43.994;22.878;2022-10-17T07:21:10;102843.91;;;13.05;59.15
6567;BME280;3317;43.994;22.878;2022-10-17T07:23:37;102845.53;;;13.08;59.11
6567;BME280;3317;43.994;22.878;2022-10-17T07:26:07;102839.84;;;13.11;58.86
6567;BME280;3317;43.994;22.878;2022-10-17T07:28:34;102832.72;;;13.21;59.32
6567;BME280;3317;43.994;22.878;2022-10-17T07:31:03;102847.63;;;13.40;58.99
6567;BME280;3317;43.994;22.878;2022-10-17T07:33:31;102839.09;;;13.56;58.76
6567;BME280;3317;43.994;22.878;2022-10-17T07:35:58;102854.22;;;13.83;58.49
6567;BME280;3317;43.994;22.878;2022-10-17T07:38:27;102844.69;;;14.00;58.17
6567;BME280;3317;43.994;22.878;2022-10-17T07:40:55;102849.50;;;14.19;57.64
6567;BME280;3317;43.994;22.878;2022-10-17T07:43:23;102836.13;;;14.28;57.33
6567;BME280;3317;43.994;22.878;2022-10-17T07:45:50;102845.56;;;14.56;57.44
6567;BME280;3317;43.994;22.878;2022-10-17T07:48:19;102848.41;;;14.77;57.55
6567;BME280;3317;43.994;22.878;2022-10-17T07:50:47;102829.88;;;14.81;56.97
6567;BME280;3317;43.994;22.878;2022-10-17T07:53:14;102842.50;;;15.15;56.32
6567;BME280;3317;43.994;22.878;2022-10-17T07:55:43;102830.66;;;15.26;55.54
6567;BME280;3317;43.994;22.878;2022-10-17T07:58:12;102826.81;;;15.28;54.59
6567;BME280;3317;43.994;22.878;2022-10-17T08:00:41;102832.69;;;15.55;55.59
6567;BME280;3317;43.994;22.878;2022-10-17T08:03:09;102833.22;;;15.70;55.99
6567;BME280;3317;43.994;22.878;2022-10-17T08:05:36;102833.84;;;15.83;55.00
6567;BME280;3317;43.994;22.878;2022-10-17T08:08:04;102836.66;;;16.03;55.98
6567;BME280;3317;43.994;22.878;2022-10-17T08:10:31;102846.50;;;16.15;54.50
6567;BME280;3317;43.994;22.878;2022-10-17T08:13:00;102841.63;;;16.29;54.76
6567;BME280;3317;43.994;22.878;2022-10-17T08:15:27;102847.88;;;16.41;53.89
6567;BME280;3317;43.994;22.878;2022-10-17T08:17:55;102848.75;;;16.61;53.95
6567;BME280;3317;43.994;22.878;2022-10-17T08:20:22;102846.47;;;16.96;52.60
6567;BME280;3317;43.994;22.878;2022-10-17T08:22:53;102826.28;;;17.07;51.53
6567;BME280;3317;43.994;22.878;2022-10-17T08:25:20;102838.69;;;17.21;50.65
6567;BME280;3317;43.994;22.878;2022-10-17T08:27:47;102828.03;;;17.17;50.53
6567;BME280;3317;43.994;22.878;2022-10-17T08:30:16;102835.66;;;17.14;49.58
6567;BME280;3317;43.994;22.878;2022-10-17T08:32:43;102843.72;;;16.96;49.34
6567;BME280;3317;43.994;22.878;2022-10-17T08:35:10;102838.66;;;16.91;49.55
6567;BME280;3317;43.994;22.878;2022-10-17T08:37:39;102844.72;;;16.95;50.24
6567;BME280;3317;43.994;22.878;2022-10-17T08:40:08;102846.59;;;16.94;49.18
6567;BME280;3317;43.994;22.878;2022-10-17T08:42:48;102838.69;;;17.01;49.73
6567;BME280;3317;43.994;22.878;2022-10-17T08:45:24;102832.66;;;17.07;49.66
6567;BME280;3317;43.994;22.878;2022-10-17T08:47:57;102838.09;;;17.17;48.95
6567;BME280;3317;43.994;22.878;2022-10-17T08:50:30;102839.97;;;17.26;49.03
6567;BME280;3317;43.994;22.878;2022-10-17T08:53:03;102845.84;;;17.31;48.76
6567;BME280;3317;43.994;22.878;2022-10-17T08:55:35;102826.50;;;17.43;49.06
6567;BME280;3317;43.994;22.878;2022-10-17T08:58:09;102831.81;;;17.54;48.40
6567;BME280;3317;43.994;22.878;2022-10-17T09:00:41;102828.47;;;17.60;47.87
6567;BME280;3317;43.994;22.878;2022-10-17T09:03:25;102832.16;;;17.79;48.44
6567;BME280;3317;43.994;22.878;2022-10-17T09:06:00;102836.13;;;17.95;47.75
6567;BME280;3317;43.994;22.878;2022-10-17T09:08:40;102832.81;;;18.29;47.90
6567;BME280;3317;43.994;22.878;2022-10-17T09:11:17;102833.28;;;18.42;46.63
6567;BME280;3317;43.994;22.878;2022-10-17T09:13:58;102823.47;;;18.40;45.36
6567;BME280;3317;43.994;22.878;2022-10-17T09:16:48;102839.03;;;18.67;45.79
6567;BME280;3317;43.994;22.878;2022-10-17T09:19:20;102837.00;;;18.88;45.50
6567;BME280;3317;43.994;22.878;2022-10-17T09:21:52;102836.66;;;18.91;43.74
6567;BME280;3317;43.994;22.878;2022-10-17T09:24:27;102832.69;;;19.03;44.74
6567;BME280;3317;43.994;22.878;2022-10-17T09:26:58;102832.25;;;19.16;43.91
6567;BME280;3317;43.994;22.878;2022-10-17T09:29:26;102829.34;;;19.18;42.91
6567;BME280;3317;43.994;22.878;2022-10-17T09:31:59;102818.94;;;19.03;42.82
6567;BME280;3317;43.994;22.878;2022-10-17T09:34:29;102834.63;;;18.93;43.19
6567;BME280;3317;43.994;22.878;2022-10-17T09:36:57;102829.06;;;18.66;42.89
6567;BME280;3317;43.994;22.878;2022-10-17T09:39:26;102827.34;;;18.65;44.09
6567;BME280;3317;43.994;22.878;2022-10-17T09:41:57;102831.19;;;18.72;43.73
6567;BME280;3317;43.994;22.878;2022-10-17T09:44:29;102827.72;;;18.70;43.69
6567;BME280;3317;43.994;22.878;2022-10-17T09:47:17;102831.03;;;18.74;43.33
6567;BME280;3317;43.994;22.878;2022-10-17T09:49:47;102833.00;;;18.82;44.02
6567;BME280;3317;43.994;22.878;2022-10-17T09:52:17;102822.22;;;18.89;43.54
6567;BME280;3317;43.994;22.878;2022-10-17T09:54:46;102814.78;;;18.81;43.41
6567;BME280;3317;43.994;22.878;2022-10-17T09:57:15;102806.47;;;18.72;43.50
6567;BME280;3317;43.994;22.878;2022-10-17T09:59:44;102830.16;;;18.74;43.53
6567;BME280;3317;43.994;22.878;2022-10-17T10:02:23;102817.19;;;18.84;44.17
6567;BME280;3317;43.994;22.878;2022-10-17T10:04:57;102826.44;;;19.19;43.70
6567;BME280;3317;43.994;22.878;2022-10-17T10:07:26;102821.75;;;19.38;42.80
6567;BME280;3317;43.994;22.878;2022-10-17T10:09:54;102792.69;;;19.35;42.38
6567;BME280;3317;43.994;22.878;2022-10-17T10:12:23;102818.47;;;19.34;42.37
6567;BME280;3317;43.994;22.878;2022-10-17T10:14:51;102812.25;;;19.32;42.20
6567;BME280;3317;43.994;22.878;2022-10-17T10:17:35;102789.56;;;19.30;42.94
6567;BME280;3317;43.994;22.878;2022-10-17T10:20:24;102803.00;;;19.68;42.90
6567;BME280;3317;43.994;22.878;2022-10-17T10:23:14;102791.72;;;19.79;42.36
6567;BME280;3317;43.994;22.878;2022-10-17T10:25:51;102800.81;;;20.15;42.17
6567;BME280;3317;43.994;22.878;2022-10-17T10:28:22;102801.53;;;20.25;41.80
6567;BME280;3317;43.994;22.878;2022-10-17T10:30:51;102797.22;;;20.14;41.18
6567;BME280;3317;43.994;22.878;2022-10-17T10:33:24;102796.69;;;20.19;41.92
6567;BME280;3317;43.994;22.878;2022-10-17T10:35:55;102794.50;;;20.31;41.42
6567;BME280;3317;43.994;22.878;2022-10-17T10:38:23;102795.88;;;20.35;40.62
6567;BME280;3317;43.994;22.878;2022-10-17T10:40:51;102786.25;;;20.31;41.24
6567;BME280;3317;43.994;22.878;2022-10-17T10:43:26;102790.88;;;20.22;40.87
6567;BME280;3317;43.994;22.878;2022-10-17T10:45:56;102791.88;;;20.12;40.83
6567;BME280;3317;43.994;22.878;2022-10-17T10:48:26;102777.03;;;19.97;40.74
6567;BME280;3317;43.994;22.878;2022-10-17T10:50:57;102774.91;;;19.91;41.01
6567;BME280;3317;43.994;22.878;2022-10-17T10:53:34;102776.00;;;20.06;41.74
6567;BME280;3317;43.994;22.878;2022-10-17T10:56:08;102776.69;;;20.00;40.67
6567;BME280;3317;43.994;22.878;2022-10-17T10:58:41;102767.94;;;20.13;41.39
6567;BME280;3317;43.994;22.878;2022-10-17T11:01:18;102746.47;;;20.25;41.19
6567;BME280;3317;43.994;22.878;2022-10-17T11:03:55;102762.84;;;20.35;39.31
6567;BME280;3317;43.994;22.878;2022-10-17T11:06:28;102759.91;;;20.36;39.82
6567;BME280;3317;43.994;22.878;2022-10-17T11:09:12;102749.25;;;20.33;39.50
6567;BME280;3317;43.994;22.878;2022-10-17T11:11:42;102746.66;;;20.32;39.46
6567;BME280;3317;43.994;22.878;2022-10-17T11:14:15;102749.91;;;20.27;39.11
6567;BME280;3317;43.994;22.878;2022-10-17T11:16:48;102726.19;;;20.26;40.19
6567;BME280;3317;43.994;22.878;2022-10-17T11:19:22;102732.06;;;20.48;39.87
6567;BME280;3317;43.994;22.878;2022-10-17T11:22:01;102731.50;;;20.77;39.89
6567;BME280;3317;43.994;22.878;2022-10-17T11:24:34;102729.97;;;20.91;38.71
6567;BME280;3317;43.994;22.878;2022-10-17T11:27:05;102728.56;;;21.12;39.17
6567;BME280;3317;43.994;22.878;2022-10-17T11:29:35;102718.22;;;21.14;38.21
6567;BME280;3317;43.994;22.878;2022-10-17T11:32:05;102720.94;;;21.22;38.21
6567;BME280;3317;43.994;22.878;2022-10-17T11:34:40;102712.19;;;21.10;37.18
6567;BME280;3317;43.994;22.878;2022-10-17T11:37:14;102715.47;;;21.06;37.52
6567;BME280;3317;43.994;22.878;2022-10-17T11:39:44;102719.44;;;21.03;37.45
6567;BME280;3317;43.994;22.878;2022-10-17T11:42:17;102702.38;;;21.08;37.31
6567;BME280;3317;43.994;22.878;2022-10-17T11:44:47;102708.53;;;21.27;38.18
6567;BME280;3317;43.994;22.878;2022-10-17T11:47:27;102704.00;;;21.42;38.16
6567;BME280;3317;43.994;22.878;2022-10-17T11:50:01;102705.03;;;21.41;37.08
6567;BME280;3317;43.994;22.878;2022-10-17T11:52:34;102707.13;;;21.39;36.75
6567;BME280;3317;43.994;22.878;2022-10-17T11:55:10;102696.69;;;21.18;36.51
6567;BME280;3317;43.994;22.878;2022-10-17T11:57:51;102686.88;;;21.15;36.78
6567;BME280;3317;43.994;22.878;2022-10-17T12:00:26;102697.22;;;21.13;37.15
6567;BME280;3317;43.994;22.878;2022-10-17T12:03:04;102693.06;;;21.09;36.82
6567;BME280;3317;43.994;22.878;2022-10-17T12:05:41;102701.03;;;20.95;36.94
6567;BME280;3317;43.994;22.878;2022-10-17T12:08:15;102688.97;;;20.96;37.06
6567;BME280;3317;43.994;22.878;2022-10-17T12:10:48;102687.94;;;20.98;37.43
6567;BME280;3317;43.994;22.878;2022-10-17T12:13:46;102686.59;;;20.85;37.00
6567;BME280;3317;43.994;22.878;2022-10-17T12:19:27;102678.34;;;20.85;37.61
6567;BME280;3317;43.994;22.878;2022-10-17T12:22:02;102667.63;;;20.90;37.74
6567;BME280;3317;43.994;22.878;2022-10-17T12:24:41;102679.31;;;21.01;37.50
6567;BME280;3317;43.994;22.878;2022-10-17T12:30:16;102674.38;;;20.54;37.07
6567;BME280;3317;43.994;22.878;2022-10-17T12:33:02;102681.78;;;20.54;37.75
6567;BME280;3317;43.994;22.878;2022-10-17T12:35:31;102680.22;;;20.51;37.81
6567;BME280;3317;43.994;22.878;2022-10-17T12:38:23;102677.97;;;20.55;38.40
6567;BME280;3317;43.994;22.878;2022-10-17T12:40:55;102666.28;;;20.61;38.14
6567;BME280;3317;43.994;22.878;2022-10-17T12:43:36;102655.28;;;20.53;38.13
6567;BME280;3317;43.994;22.878;2022-10-17T12:46:08;102671.13;;;20.59;38.14
6567;BME280;3317;43.994;22.878;2022-10-17T12:48:58;102665.25;;;20.62;38.25
6567;BME280;3317;43.994;22.878;2022-10-17T12:51:26;102660.41;;;20.56;38.34
6567;BME280;3317;43.994;22.878;2022-10-17T12:53:59;102662.16;;;20.40;38.15
6567;BME280;3317;43.994;22.878;2022-10-17T12:56:33;102670.25;;;20.25;38.12
6567;BME280;3317;43.994;22.878;2022-10-17T12:59:06;102649.59;;;20.13;38.54
6567;BME280;3317;43.994;22.878;2022-10-17T13:01:37;102660.25;;;20.08;38.22
6567;BME280;3317;43.994;22.878;2022-10-17T13:04:08;102656.66;;;19.99;38.38
6567;BME280;3317;43.994;22.878;2022-10-17T13:06:39;102650.06;;;19.83;39.05
6567;BME280;3317;43.994;22.878;2022-10-17T13:09:21;102659.28;;;19.66;39.02
6567;BME280;3317;43.994;22.878;2022-10-17T13:11:50;102651.38;;;19.63;39.21
6567;BME280;3317;43.994;22.878;2022-10-17T13:14:20;102654.13;;;19.63;39.74
6567;BME280;3317;43.994;22.878;2022-10-17T13:16:52;102607.91;;;19.15;39.84
6567;BME280;3317;43.994;22.878;2022-10-17T13:19:22;102646.78;;;19.28;39.76
6567;BME280;3317;43.994;22.878;2022-10-17T13:21:50;102655.38;;;19.25;39.93
6567;BME280;3317;43.994;22.878;2022-10-17T13:24:27;102655.88;;;19.21;40.54
6567;BME280;3317;43.994;22.878;2022-10-17T13:26:55;102648.50;;;19.21;40.32